Time;durP1;ratioP1;P1;durP2;ratioP2;P2;SDS_P1;SDS_P2;PMS_P1;PMS_P2;Temp;Humidity;BMP_temperature;BMP_pressure;BME280_temperature;BME280_humidity;BME280_pressure;Samples;Min_cycle;Max_cycle;Signal;HPM_P1;HPM_P2
2022/11/04 00:01:21;;;;;;;;;;;;;;;9.44;100.00;95569.16;5061370;28;20438;-74
2022/11/04 00:03:47;;;;;;;;;;;;;;;9.43;100.00;95573.59;5065590;28;20028;-73
2022/11/04 00:06:13;;;;;;;;;;;;;;;9.44;100.00;95571.78;5066851;28;19953;-73
2022/11/04 00:08:39;;;;;;;;;;;;;;;9.42;100.00;95574.59;5068786;28;19974;-73
2022/11/04 00:13:49;;;;;;;;;;;;;;;9.42;100.00;95566.75;5060135;28;19949;-76
2022/11/04 00:19:00;;;;;;;;;;;;;;;9.43;100.00;95581.44;5065286;28;19955;-74
2022/11/04 00:29:40;;;;;;;;;;;;;;;9.43;100.00;95576.22;5061078;28;19950;-74
2022/11/04 00:34:50;;;;;;;;;;;;;;;9.40;100.00;95576.66;5066199;28;19953;-73
2022/11/04 00:37:16;;;;;;;;;;;;;;;9.38;100.00;95585.78;5069518;28;20422;-74
2022/11/04 00:39:42;;;;;;;;;;;;;;;9.32;100.00;95587.47;5063878;28;19959;-74
2022/11/04 00:42:08;;;;;;;;;;;;;;;9.29;100.00;95587.94;5063806;28;19961;-74
2022/11/04 00:44:34;;;;;;;;;;;;;;;9.28;100.00;95581.94;5063566;28;19981;-74
2022/11/04 00:47:00;;;;;;;;;;;;;;;9.26;100.00;95585.78;5064555;28;19958;-74
2022/11/04 00:49:26;;;;;;;;;;;;;;;9.24;100.00;95587.84;5069475;28;20050;-74
2022/11/04 00:51:52;;;;;;;;;;;;;;;9.25;100.00;95594.66;5064036;28;20387;-74
2022/11/04 00:54:18;;;;;;;;;;;;;;;9.23;100.00;95596.72;5064548;28;20027;-74
2022/11/04 00:56:43;;;;;;;;;;;;;;;9.21;100.00;95593.53;5063302;28;20346;-74
2022/11/04 00:59:10;;;;;;;;;;;;;;;9.19;100.00;95598.22;5064760;28;19999;-74
2022/11/04 01:01:36;;;;;;;;;;;;;;;9.15;100.00;95600.47;5065061;28;19943;-74
2022/11/04 01:04:02;;;;;;;;;;;;;;;9.14;100.00;95599.69;5063338;28;20024;-74
2022/11/04 01:06:27;;;;;;;;;;;;;;;9.12;100.00;95603.56;5063784;28;20049;-73
2022/11/04 01:08:55;;;;;;;;;;;;;;;9.12;100.00;95598.34;5064374;28;19984;-74
2022/11/04 01:11:20;;;;;;;;;;;;;;;9.13;100.00;95607.75;5069220;28;20438;-74
2022/11/04 01:13:49;;;;;;;;;;;;;;;9.14;100.00;95607.53;5062787;28;19960;-74
2022/11/04 01:16:14;;;;;;;;;;;;;;;9.13;100.00;95600.72;5057334;28;19958;-74
2022/11/04 01:18:40;;;;;;;;;;;;;;;9.18;100.00;95599.25;5070023;28;19955;-74
2022/11/04 01:21:07;;;;;;;;;;;;;;;9.20;100.00;95605.00;5065426;28;19960;-76
2022/11/04 01:23:33;;;;;;;;;;;;;;;9.21;100.00;95611.84;5058055;28;19944;-74
2022/11/04 01:25:59;;;;;;;;;;;;;;;9.24;100.00;95616.63;5065136;28;19960;-74
2022/11/04 01:28:25;;;;;;;;;;;;;;;9.24;100.00;95612.19;5064795;28;19994;-74
2022/11/04 01:30:51;;;;;;;;;;;;;;;9.24;100.00;95621.84;5065120;28;19964;-74
2022/11/04 01:33:17;;;;;;;;;;;;;;;9.24;100.00;95616.63;5066654;28;20056;-74
2022/11/04 01:35:43;;;;;;;;;;;;;;;9.23;100.00;95610.59;5059625;28;19960;-74
2022/11/04 01:38:09;;;;;;;;;;;;;;;9.21;100.00;95615.25;5066490;28;19960;-74
2022/11/04 01:40:39;;;;;;;;;;;;;;;9.19;100.00;95606.06;5065566;28;19948;-74
2022/11/04 01:43:16;;;;;;;;;;;;;;;9.14;100.00;95599.69;5063844;28;20349;-74
2022/11/04 01:45:57;;;;;;;;;;;;;;;9.09;100.00;95593.53;5064678;28;19967;-74
2022/11/04 01:48:31;;;;;;;;;;;;;;;9.03;100.00;95599.69;5050365;28;19956;-74
2022/11/04 01:50:58;;;;;;;;;;;;;;;8.97;100.00;95604.03;5062692;28;20335;-74
2022/11/04 01:53:27;;;;;;;;;;;;;;;8.96;100.00;95612.09;5064576;28;19951;-73
2022/11/04 01:55:57;;;;;;;;;;;;;;;8.93;100.00;95602.88;5066497;28;19955;-74
2022/11/04 01:58:26;;;;;;;;;;;;;;;8.91;100.00;95599.72;5064144;28;19955;-74
2022/11/04 02:00:52;;;;;;;;;;;;;;;8.89;100.00;95594.69;5065878;28;19966;-74
2022/11/04 02:03:27;;;;;;;;;;;;;;;8.87;100.00;95591.50;5062549;28;19960;-74
2022/11/04 02:05:53;;;;;;;;;;;;;;;8.88;100.00;95598.34;5063824;28;19978;-74
2022/11/04 02:08:20;;;;;;;;;;;;;;;8.89;100.00;95597.31;5065260;28;19989;-74
2022/11/04 02:10:51;;;;;;;;;;;;;;;8.89;100.00;95599.94;5066932;28;19962;-73
2022/11/04 02:13:17;;;;;;;;;;;;;;;8.86;100.00;95595.16;5057275;28;19962;-74
2022/11/04 02:15:49;;;;;;;;;;;;;;;8.83;100.00;95598.22;5044256;28;20408;-74
2022/11/04 02:18:44;;;;;;;;;;;;;;;8.82;100.00;95601.06;5065455;28;20405;-74
2022/11/04 02:21:30;;;;;;;;;;;;;;;8.80;100.00;95603.09;4960181;28;19959;-74
2022/11/04 02:24:11;;;;;;;;;;;;;;;8.78;100.00;95592.88;5012537;28;20318;-74
2022/11/04 02:26:40;;;;;;;;;;;;;;;8.73;100.00;95590.97;5064657;28;19951;-73
2022/11/04 02:29:25;;;;;;;;;;;;;;;8.73;100.00;95587.53;5060287;28;19961;-73
2022/11/04 02:31:59;;;;;;;;;;;;;;;8.71;100.00;95590.41;5051610;28;19948;-73
2022/11/04 02:34:32;;;;;;;;;;;;;;;8.72;100.00;95588.56;5064295;28;20406;-73
2022/11/04 02:37:11;;;;;;;;;;;;;;;8.70;100.00;95583.56;5057584;28;19958;-74
2022/11/04 02:39:39;;;;;;;;;;;;;;;8.70;100.00;95586.16;5044581;28;19959;-74
2022/11/04 02:42:16;;;;;;;;;;;;;;;8.70;100.00;95590.63;5063781;28;20302;-74
2022/11/04 02:44:58;;;;;;;;;;;;;;;8.69;100.00;95586.38;5061080;28;19962;-74
2022/11/04 02:47:27;;;;;;;;;;;;;;;8.70;100.00;95588.00;5060021;28;19951;-74
2022/11/04 02:50:07;;;;;;;;;;;;;;;8.68;100.00;95580.38;5063841;28;19957;-76
2022/11/04 02:52:48;;;;;;;;;;;;;;;8.66;100.00;95584.25;5061431;28;20331;-74
2022/11/04 02:55:24;;;;;;;;;;;;;;;8.61;100.00;95576.28;5064824;28;20410;-73
2022/11/04 02:57:53;;;;;;;;;;;;;;;8.57;100.00;95551.59;5068990;28;19958;-74
2022/11/04 03:00:20;;;;;;;;;;;;;;;8.53;100.00;95553.91;5063980;28;19948;-74
2022/11/04 03:02:51;;;;;;;;;;;;;;;8.50;100.00;95565.63;5057960;28;19952;-74
2022/11/04 03:05:24;;;;;;;;;;;;;;;8.46;100.00;95574.09;5070408;28;19976;-73
2022/11/04 03:07:53;;;;;;;;;;;;;;;8.40;100.00;95560.13;5066675;28;19966;-74
2022/11/04 03:10:22;;;;;;;;;;;;;;;8.37;100.00;95559.75;5068363;28;20339;-73
2022/11/04 03:13:01;;;;;;;;;;;;;;;8.33;100.00;95573.25;5061566;28;19966;-74
2022/11/04 03:15:30;;;;;;;;;;;;;;;8.32;100.00;95573.50;5063537;28;19955;-74
2022/11/04 03:17:59;;;;;;;;;;;;;;;8.30;100.00;95571.09;5068451;28;19944;-74
2022/11/04 03:20:26;;;;;;;;;;;;;;;8.30;100.00;95586.00;5068103;28;19954;-73
2022/11/04 03:22:58;;;;;;;;;;;;;;;8.29;100.00;95581.78;5061472;28;19951;-74
2022/11/04 03:25:36;;;;;;;;;;;;;;;8.29;100.00;95581.78;5061251;28;19985;-74
2022/11/04 03:28:25;;;;;;;;;;;;;;;8.27;100.00;95584.63;5064669;28;20325;-74
2022/11/04 03:30:53;;;;;;;;;;;;;;;8.23;100.00;95593.94;5036138;28;19950;-73
2022/11/04 03:33:22;;;;;;;;;;;;;;;8.22;100.00;95596.75;5067258;28;19949;-74
2022/11/04 03:35:48;;;;;;;;;;;;;;;8.19;100.00;95598.00;5067850;28;19963;-73
2022/11/04 03:38:14;;;;;;;;;;;;;;;8.16;100.00;95611.50;5062793;28;20104;-74
2022/11/04 03:40:39;;;;;;;;;;;;;;;8.13;100.00;95617.97;5061840;28;19966;-73
2022/11/04 03:43:08;;;;;;;;;;;;;;;8.13;100.00;95630.22;5066011;28;20299;-74
2022/11/04 03:45:34;;;;;;;;;;;;;;;8.10;100.00;95613.16;5070870;28;19962;-74
2022/11/04 03:48:00;;;;;;;;;;;;;;;8.10;100.00;95615.78;5069306;28;19962;-73
2022/11/04 03:50:28;;;;;;;;;;;;;;;8.10;100.00;95617.59;5059583;28;20336;-74
2022/11/04 03:52:54;;;;;;;;;;;;;;;8.07;100.00;95631.91;5071300;28;19951;-73
2022/11/04 03:55:22;;;;;;;;;;;;;;;8.08;100.00;95632.69;5069672;28;20408;-73
2022/11/04 03:57:53;;;;;;;;;;;;;;;8.06;100.00;95638.16;5066133;28;20328;-73
2022/11/04 04:00:20;;;;;;;;;;;;;;;8.06;100.00;95629.50;5066355;28;20334;-73
2022/11/04 04:02:58;;;;;;;;;;;;;;;8.04;100.00;95621.09;5059823;28;19952;-75
2022/11/04 04:05:24;;;;;;;;;;;;;;;8.02;100.00;95629.19;5065677;28;19977;-75
2022/11/04 04:07:58;;;;;;;;;;;;;;;8.01;100.00;95624.16;5071152;28;20440;-74
2022/11/04 04:10:53;;;;;;;;;;;;;;;8.00;100.00;95612.94;5065305;28;19963;-73
2022/11/04 04:13:19;;;;;;;;;;;;;;;7.98;100.00;95611.53;5045033;28;19967;-74
2022/11/04 04:15:47;;;;;;;;;;;;;;;7.97;100.00;95607.34;5062209;28;20053;-74
2022/11/04 04:18:15;;;;;;;;;;;;;;;7.94;100.00;95606.00;5065156;28;19959;-74
2022/11/04 04:20:46;;;;;;;;;;;;;;;7.91;100.00;95615.03;5063385;28;19955;-74
2022/11/04 04:28:53;;;;;;;;;;;;;;;7.84;100.00;95637.03;5064313;28;19959;-73
2022/11/04 04:34:04;;;;;;;;;;;;;;;7.81;100.00;95643.50;5068095;28;19958;-74
2022/11/04 04:36:33;;;;;;;;;;;;;;;7.78;100.00;95649.16;5068431;28;19954;-73
2022/11/04 04:47:18;;;;;;;;;;;;;;;7.70;100.00;95625.94;5063366;28;19964;-74
2022/11/04 04:49:50;;;;;;;;;;;;;;;7.67;100.00;95616.75;5064971;28;19952;-74
2022/11/04 04:52:16;;;;;;;;;;;;;;;7.65;100.00;95597.13;5063214;28;20437;-73
2022/11/04 04:54:43;;;;;;;;;;;;;;;7.63;100.00;95588.72;5072002;28;19954;-74
2022/11/04 04:57:09;;;;;;;;;;;;;;;7.60;100.00;95576.09;5055174;28;19958;-74
2022/11/04 04:59:35;;;;;;;;;;;;;;;7.60;100.00;95576.91;5068257;28;20011;-74
2022/11/04 05:02:01;;;;;;;;;;;;;;;7.57;100.00;95563.50;5059557;28;19953;-74
2022/11/04 05:04:27;;;;;;;;;;;;;;;7.56;100.00;95546.25;5065790;28;19967;-74
2022/11/04 05:06:53;;;;;;;;;;;;;;;7.53;100.00;95548.28;5070436;28;19959;-74
2022/11/04 05:09:18;;;;;;;;;;;;;;;7.51;100.00;95539.09;5064405;28;20031;-74
2022/11/04 05:11:45;;;;;;;;;;;;;;;7.48;100.00;95532.50;5062473;28;20440;-73
2022/11/04 05:14:10;;;;;;;;;;;;;;;7.46;100.00;95531.13;5061802;28;19965;-73
2022/11/04 05:16:36;;;;;;;;;;;;;;;7.43;100.00;95529.78;5066879;28;19953;-73
2022/11/04 05:19:02;;;;;;;;;;;;;;;7.41;100.00;95531.81;5064032;28;19964;-74
2022/11/04 05:21:28;;;;;;;;;;;;;;;7.39;100.00;95546.88;5064284;28;20366;-73
2022/11/04 05:23:54;;;;;;;;;;;;;;;7.36;100.00;95546.50;5045609;28;20053;-73
2022/11/04 05:26:20;;;;;;;;;;;;;;;7.37;100.00;95566.34;5064110;28;19968;-73
2022/11/04 05:28:46;;;;;;;;;;;;;;;7.35;100.00;95576.19;5060213;28;19957;-73
2022/11/04 05:31:12;;;;;;;;;;;;;;;7.34;100.00;95587.66;5063972;28;19954;-73
2022/11/04 05:33:38;;;;;;;;;;;;;;;7.34;100.00;95595.47;5068184;28;19963;-73
2022/11/04 05:36:08;;;;;;;;;;;;;;;7.31;100.00;95594.13;5066548;28;19960;-74
2022/11/04 05:38:33;;;;;;;;;;;;;;;7.31;100.00;95586.28;5059646;28;19966;-74
2022/11/04 05:40:59;;;;;;;;;;;;;;;7.30;100.00;95582.88;5067435;28;20440;-74
2022/11/04 05:43:25;;;;;;;;;;;;;;;7.31;100.00;95583.69;5069429;28;20034;-75
2022/11/04 05:45:51;;;;;;;;;;;;;;;7.31;100.00;95587.09;5059585;28;19977;-73
2022/11/04 05:48:17;;;;;;;;;;;;;;;7.30;100.00;95595.91;5062018;28;19957;-74
2022/11/04 05:50:43;;;;;;;;;;;;;;;7.29;100.00;95589.09;5063074;28;19978;-73
2022/11/04 05:53:09;;;;;;;;;;;;;;;7.28;100.00;95579.69;5065365;28;19960;-73
2022/11/04 05:55:34;;;;;;;;;;;;;;;7.27;100.00;95572.09;5066241;28;20069;-73
2022/11/04 05:58:00;;;;;;;;;;;;;;;7.28;100.00;95581.50;5063004;28;19958;-73
2022/11/04 06:00:27;;;;;;;;;;;;;;;7.25;100.00;95561.88;5064047;28;19970;-73
2022/11/04 06:02:53;;;;;;;;;;;;;;;7.25;100.00;95561.88;5059280;28;19949;-73
2022/11/04 06:05:19;;;;;;;;;;;;;;;7.23;100.00;95547.47;5063778;28;19984;-73
2022/11/04 06:07:45;;;;;;;;;;;;;;;7.23;100.00;95550.06;5068931;28;19978;-73
2022/11/04 06:10:11;;;;;;;;;;;;;;;7.23;100.00;95560.50;5062241;28;19976;-73
2022/11/04 06:12:37;;;;;;;;;;;;;;;7.20;100.00;95564.34;5062564;28;19956;-74
2022/11/04 06:15:03;;;;;;;;;;;;;;;7.18;100.00;95557.75;5058581;28;19951;-74
2022/11/04 06:17:29;;;;;;;;;;;;;;;7.15;100.00;95566.00;5065994;28;19973;-74
2022/11/04 06:19:54;;;;;;;;;;;;;;;7.14;100.00;95567.81;5066151;28;20041;-73
2022/11/04 06:22:20;;;;;;;;;;;;;;;7.11;100.00;95576.84;5057452;28;20050;-74
2022/11/04 06:24:46;;;;;;;;;;;;;;;7.10;100.00;95579.69;5054584;28;20321;-74
2022/11/04 06:27:12;;;;;;;;;;;;;;;7.09;100.00;95584.09;5061725;28;19954;-73
2022/11/04 06:29:38;;;;;;;;;;;;;;;7.07;100.00;95591.34;5066003;28;20041;-73
2022/11/04 06:32:05;;;;;;;;;;;;;;;7.07;100.00;95591.34;5063875;28;19971;-73
2022/11/04 06:34:31;;;;;;;;;;;;;;;7.06;100.00;95608.00;5058913;28;19961;-73
2022/11/04 06:36:57;;;;;;;;;;;;;;;7.04;100.00;95617.06;5064469;28;20040;-74
2022/11/04 06:39:22;;;;;;;;;;;;;;;7.01;100.00;95620.88;5071142;28;20490;-73
2022/11/04 06:41:48;;;;;;;;;;;;;;;7.02;100.00;95625.09;5068070;28;19963;-73
2022/11/04 06:44:14;;;;;;;;;;;;;;;7.02;100.00;95629.50;5063935;28;20006;-73
2022/11/04 06:46:41;;;;;;;;;;;;;;;7.02;100.00;95629.50;5071091;28;19959;-73
2022/11/04 06:49:18;;;;;;;;;;;;;;;7.02;100.00;95640.72;5074578;28;20435;-74
2022/11/04 06:51:44;;;;;;;;;;;;;;;7.02;100.00;95643.34;5071076;28;19957;-73
2022/11/04 06:54:10;;;;;;;;;;;;;;;7.03;100.00;95644.13;5070556;28;19958;-73
2022/11/04 06:56:37;;;;;;;;;;;;;;;7.03;100.00;95631.88;5065954;28;19951;-73
2022/11/04 06:59:02;;;;;;;;;;;;;;;7.06;100.00;95623.66;5071271;28;19958;-73
2022/11/04 07:01:29;;;;;;;;;;;;;;;7.07;100.00;95606.97;5070795;28;19954;-73
2022/11/04 07:03:57;;;;;;;;;;;;;;;7.09;100.00;95612.78;5070253;28;19951;-73
2022/11/04 07:06:23;;;;;;;;;;;;;;;7.12;100.00;95611.56;5064103;28;19992;-73
2022/11/04 07:08:50;;;;;;;;;;;;;;;7.14;100.00;95612.16;5069389;28;19973;-74
2022/11/04 07:11:17;;;;;;;;;;;;;;;7.17;100.00;95610.91;5068851;28;19957;-73
2022/11/04 07:13:43;;;;;;;;;;;;;;;7.18;100.00;95602.06;5067648;28;19956;-73
2022/11/04 07:16:08;;;;;;;;;;;;;;;7.18;100.00;95608.09;5069286;28;19963;-73
2022/11/04 07:18:35;;;;;;;;;;;;;;;7.20;100.00;95603.47;5069383;28;19957;-74
2022/11/04 07:21:01;;;;;;;;;;;;;;;7.22;100.00;95605.84;5072222;28;19954;-74
2022/11/04 07:23:27;;;;;;;;;;;;;;;7.25;100.00;95600.19;5066520;28;20294;-73
2022/11/04 07:25:58;;;;;;;;;;;;;;;7.27;100.00;95603.38;5067529;28;19993;-74
2022/11/04 07:28:23;;;;;;;;;;;;;;;7.29;100.00;95596.16;5073992;28;19976;-73
2022/11/04 07:30:49;;;;;;;;;;;;;;;7.32;100.00;95603.50;5071277;28;19964;-74
2022/11/04 07:33:17;;;;;;;;;;;;;;;7.34;100.00;95603.31;5066038;28;20040;-74
2022/11/04 07:35:44;;;;;;;;;;;;;;;7.38;100.00;95600.03;5069441;28;19952;-73
2022/11/04 07:38:10;;;;;;;;;;;;;;;7.41;100.00;95599.63;5050620;28;19966;-73
2022/11/04 07:40:38;;;;;;;;;;;;;;;7.45;100.00;95599.97;5069918;28;20312;-74
2022/11/04 07:43:04;;;;;;;;;;;;;;;7.48;100.00;95602.16;5067509;28;19960;-73
2022/11/04 07:45:29;;;;;;;;;;;;;;;7.50;100.00;95606.13;5068473;28;20001;-73
2022/11/04 07:47:56;;;;;;;;;;;;;;;7.55;100.00;95594.22;5064242;28;20008;-73
2022/11/04 07:50:22;;;;;;;;;;;;;;;7.56;100.00;95591.41;5049505;28;19957;-74
2022/11/04 07:52:49;;;;;;;;;;;;;;;7.59;100.00;95584.97;5075814;28;19961;-74
2022/11/04 07:55:17;;;;;;;;;;;;;;;7.63;100.00;95592.13;5061579;28;19965;-74
2022/11/04 07:57:46;;;;;;;;;;;;;;;7.67;100.00;95597.69;5066250;28;20001;-74
2022/11/04 08:00:14;;;;;;;;;;;;;;;7.70;100.00;95589.41;5066127;28;19970;-74
2022/11/04 08:02:41;;;;;;;;;;;;;;;7.71;100.00;95584.00;5069972;28;20317;-74
2022/11/04 08:05:07;;;;;;;;;;;;;;;7.73;100.00;95581.97;5069150;28;20389;-74
2022/11/04 08:07:32;;;;;;;;;;;;;;;7.76;100.00;95585.94;5059336;28;19991;-74
2022/11/04 08:09:58;;;;;;;;;;;;;;;7.80;100.00;95576.63;5064826;28;20052;-74
2022/11/04 08:12:26;;;;;;;;;;;;;;;7.83;100.00;95572.78;5068071;28;20394;-74
2022/11/04 08:14:52;;;;;;;;;;;;;;;7.83;100.00;95568.38;5063175;28;19953;-75
2022/11/04 08:17:18;;;;;;;;;;;;;;;7.84;100.00;95569.97;5064995;28;20449;-74
2022/11/04 08:19:44;;;;;;;;;;;;;;;7.86;100.00;95562.72;5068852;28;19955;-75
2022/11/04 08:22:10;;;;;;;;;;;;;;;7.91;100.00;95568.03;5065272;28;19952;-74
2022/11/04 08:24:36;;;;;;;;;;;;;;;7.95;100.00;95565.00;5062217;28;19961;-75
2022/11/04 08:27:03;;;;;;;;;;;;;;;7.95;100.00;95578.06;5055633;28;19973;-75
2022/11/04 08:29:29;;;;;;;;;;;;;;;7.93;100.00;95579.06;5065709;28;19954;-74
2022/11/04 08:31:55;;;;;;;;;;;;;;;7.90;100.00;95568.28;5059773;28;19959;-74
2022/11/04 08:34:21;;;;;;;;;;;;;;;7.91;100.00;95575.88;5066913;28;19963;-74
2022/11/04 08:36:47;;;;;;;;;;;;;;;7.92;100.00;95572.25;5071161;28;20008;-74
2022/11/04 08:39:13;;;;;;;;;;;;;;;7.93;100.00;95573.06;5064887;28;19968;-74
2022/11/04 08:41:40;;;;;;;;;;;;;;;7.95;100.00;95570.22;5063084;28;20349;-75
2022/11/04 08:44:07;;;;;;;;;;;;;;;7.94;100.00;95572.06;5064770;28;19955;-74
2022/11/04 08:46:35;;;;;;;;;;;;;;;7.98;100.00;95567.16;5060142;28;19957;-75
2022/11/04 08:49:01;;;;;;;;;;;;;;;8.03;100.00;95565.47;5066250;28;20408;-74
2022/11/04 08:51:28;;;;;;;;;;;;;;;8.05;100.00;95570.50;5056792;28;19954;-74
2022/11/04 08:53:54;;;;;;;;;;;;;;;8.10;100.00;95581.03;5062899;28;20338;-74
2022/11/04 08:56:19;;;;;;;;;;;;;;;8.12;100.00;95585.03;5066990;28;19953;-74
2022/11/04 08:58:46;;;;;;;;;;;;;;;8.15;100.00;95591.63;5045355;28;19987;-74
2022/11/04 09:01:12;;;;;;;;;;;;;;;8.18;100.00;95583.34;5074700;28;19956;-74
2022/11/04 09:03:38;;;;;;;;;;;;;;;8.20;100.00;95596.97;5075235;28;19960;-74
2022/11/04 09:06:05;;;;;;;;;;;;;;;8.22;100.00;95600.16;5058981;28;19971;-74
2022/11/04 09:08:31;;;;;;;;;;;;;;;8.21;100.00;95606.41;5062812;28;19968;-74
2022/11/04 09:10:57;;;;;;;;;;;;;;;8.19;100.00;95612.84;5063817;28;20384;-74
2022/11/04 09:13:23;;;;;;;;;;;;;;;8.30;100.00;95618.13;5043816;28;19956;-74
2022/11/04 09:15:49;;;;;;;;;;;;;;;8.49;100.00;95624.09;5062703;28;19956;-74
2022/11/04 09:18:15;;;;;;;;;;;;;;;8.57;100.00;95611.72;5069990;28;19960;-74
2022/11/04 09:20:41;;;;;;;;;;;;;;;8.57;100.00;95609.09;5066849;28;19955;-74
2022/11/04 09:23:07;;;;;;;;;;;;;;;8.59;100.00;95620.94;5062539;28;19942;-75
2022/11/04 09:25:33;;;;;;;;;;;;;;;8.59;100.00;95617.50;5059847;28;19967;-76
2022/11/04 09:28:00;;;;;;;;;;;;;;;8.58;100.00;95618.56;5070789;28;19959;-74
2022/11/04 09:30:26;;;;;;;;;;;;;;;8.57;100.00;95614.31;5067248;28;19967;-74
2022/11/04 09:32:52;;;;;;;;;;;;;;;8.58;100.00;95616.72;5061068;28;19959;-74
2022/11/04 09:35:18;;;;;;;;;;;;;;;8.62;100.00;95619.69;5066865;28;20320;-74
2022/11/04 09:37:45;;;;;;;;;;;;;;;8.65;100.00;95617.44;5066163;28;19950;-74
2022/11/04 09:40:15;;;;;;;;;;;;;;;8.62;99.46;95604.00;5064900;28;20331;-74
2022/11/04 09:42:48;;;;;;;;;;;;;;;8.58;98.80;95598.44;5068486;28;19950;-74
2022/11/04 09:45:17;;;;;;;;;;;;;;;8.56;100.00;95613.53;5067188;28;19953;-73
2022/11/04 09:47:44;;;;;;;;;;;;;;;8.61;100.00;95613.69;5065600;28;19952;-74
2022/11/04 09:50:17;;;;;;;;;;;;;;;8.61;99.44;95608.44;5063309;28;19954;-74
2022/11/04 09:52:46;;;;;;;;;;;;;;;8.64;100.00;95601.97;5059110;28;19950;-74
2022/11/04 09:55:29;;;;;;;;;;;;;;;8.69;100.00;95602.88;5066655;28;19960;-74
2022/11/04 09:57:57;;;;;;;;;;;;;;;8.81;100.00;95608.09;5066078;28;19953;-74
2022/11/04 10:00:23;;;;;;;;;;;;;;;8.91;100.00;95600.50;5060926;28;20405;-74
2022/11/04 10:02:49;;;;;;;;;;;;;;;9.00;100.00;95587.09;5063035;28;19992;-74
2022/11/04 10:05:44;;;;;;;;;;;;;;;9.02;98.21;95582.41;5065586;28;20320;-75
2022/11/04 10:08:28;;;;;;;;;;;;;;;9.08;100.00;95590.13;4965660;28;20467;-74
2022/11/04 10:11:07;;;;;;;;;;;;;;;9.10;98.82;95587.31;5072212;28;19962;-74
2022/11/04 10:13:36;;;;;;;;;;;;;;;9.10;96.83;95577.63;5043448;28;19951;-75
2022/11/04 10:16:17;;;;;;;;;;;;;;;9.11;98.07;95589.69;5053483;28;19948;-74
2022/11/04 10:19:01;;;;;;;;;;;;;;;9.14;97.25;95578.75;5054462;28;19950;-74
2022/11/04 10:21:30;;;;;;;;;;;;;;;9.18;97.32;95573.09;5026506;28;19954;-74
2022/11/04 10:23:55;;;;;;;;;;;;;;;9.22;97.38;95577.63;5054863;28;20300;-74
2022/11/04 10:26:34;;;;;;;;;;;;;;;9.24;95.84;95569.53;5040846;28;20016;-74
2022/11/04 10:29:14;;;;;;;;;;;;;;;9.25;94.91;95573.75;5063640;28;19959;-74
2022/11/04 10:31:42;;;;;;;;;;;;;;;9.25;95.04;95574.53;5067107;28;19962;-74
2022/11/04 10:34:14;;;;;;;;;;;;;;;9.30;97.13;95584.28;5054807;28;19959;-74
2022/11/04 10:36:41;;;;;;;;;;;;;;;9.32;95.24;95577.84;5064713;28;19958;-74
2022/11/04 10:39:15;;;;;;;;;;;;;;;9.27;93.22;95569.06;5053717;28;19960;-74
2022/11/04 10:41:42;;;;;;;;;;;;;;;9.25;95.90;95582.38;5065377;28;19960;-74
2022/11/04 10:44:13;;;;;;;;;;;;;;;9.28;96.74;95587.16;5066372;28;19953;-74
2022/11/04 10:46:38;;;;;;;;;;;;;;;9.34;98.92;95588.88;5045459;28;20349;-74
2022/11/04 10:49:17;;;;;;;;;;;;;;;9.39;97.32;95577.69;5059839;28;19945;-74
2022/11/04 10:51:43;;;;;;;;;;;;;;;9.45;98.29;95578.56;5062652;28;19957;-74
2022/11/04 10:54:10;;;;;;;;;;;;;;;9.50;97.50;95581.31;5065441;28;19955;-73
2022/11/04 10:56:44;;;;;;;;;;;;;;;9.55;95.77;95566.50;5061416;28;19962;-74
2022/11/04 10:59:27;;;;;;;;;;;;;;;9.61;96.12;95564.75;5061206;28;19947;-74
2022/11/04 11:01:57;;;;;;;;;;;;;;;9.67;94.46;95552.56;5057873;28;20330;-74
2022/11/04 11:04:28;;;;;;;;;;;;;;;9.75;95.72;95553.00;5063355;28;19966;-74
2022/11/04 11:06:55;;;;;;;;;;;;;;;9.83;94.26;95548.44;5066158;28;19969;-74
2022/11/04 11:09:27;;;;;;;;;;;;;;;9.85;90.93;95525.38;5064402;28;19979;-74
2022/11/04 11:11:54;;;;;;;;;;;;;;;9.92;93.48;95544.38;5056434;28;20450;-74
2022/11/04 11:14:19;;;;;;;;;;;;;;;9.98;94.38;95550.50;5049111;28;19957;-74
2022/11/04 11:16:47;;;;;;;;;;;;;;;10.04;93.53;95541.72;5067118;28;19969;-74
2022/11/04 11:19:17;;;;;;;;;;;;;;;10.02;91.19;95530.69;5058256;28;19958;-74
2022/11/04 11:21:54;;;;;;;;;;;;;;;10.08;94.49;95542.81;5060996;28;20424;-74
2022/11/04 11:24:21;;;;;;;;;;;;;;;10.12;91.22;95518.53;5046634;28;19955;-74
2022/11/04 11:26:57;;;;;;;;;;;;;;;10.17;92.39;95525.69;5063861;28;20323;-74
2022/11/04 11:29:25;;;;;;;;;;;;;;;10.21;89.74;95505.84;5065075;28;19962;-76
2022/11/04 11:31:52;;;;;;;;;;;;;;;10.28;90.09;95508.28;5057338;28;19944;-74
2022/11/04 11:34:21;;;;;;;;;;;;;;;10.36;90.89;95513.94;5070934;28;19962;-74
2022/11/04 11:36:48;;;;;;;;;;;;;;;10.46;91.85;95513.31;5066224;28;20427;-74
2022/11/04 11:39:17;;;;;;;;;;;;;;;10.57;91.12;95506.41;5065763;28;20327;-74
2022/11/04 11:42:02;;;;;;;;;;;;;;;10.63;90.98;95496.78;5062225;28;19966;-74
2022/11/04 11:44:30;;;;;;;;;;;;;;;10.67;87.52;95476.91;5066237;28;19958;-74
2022/11/04 11:47:00;;;;;;;;;;;;;;;10.66;87.52;95475.31;5066752;28;19961;-74
2022/11/04 11:49:29;;;;;;;;;;;;;;;10.63;84.48;95460.09;5065694;28;20399;-74
2022/11/04 11:51:55;;;;;;;;;;;;;;;10.61;84.44;95459.53;5072775;28;19951;-74
2022/11/04 11:54:24;;;;;;;;;;;;;;;10.61;88.96;95494.41;5066341;28;19954;-74
2022/11/04 11:56:59;;;;;;;;;;;;;;;10.54;87.23;95491.13;5058911;28;19954;-74
2022/11/04 11:59:31;;;;;;;;;;;;;;;10.50;85.47;95474.31;5046916;28;19962;-74
2022/11/04 12:02:18;;;;;;;;;;;;;;;10.54;86.47;95481.47;5066821;28;19954;-74
2022/11/04 12:04:44;;;;;;;;;;;;;;;10.63;88.23;95492.31;5068238;28;20323;-74
2022/11/04 12:07:42;;;;;;;;;;;;;;;10.71;86.32;95470.94;5065266;28;20003;-74
2022/11/04 12:10:14;;;;;;;;;;;;;;;10.85;86.22;95466.13;5012293;28;19963;-75
2022/11/04 12:13:00;;;;;;;;;;;;;;;10.93;87.18;95475.41;5054015;28;20450;-74
2022/11/04 12:15:31;;;;;;;;;;;;;;;10.99;87.56;95484.91;5045614;28;19959;-74
2022/11/04 12:18:18;;;;;;;;;;;;;;;10.97;86.22;95473.88;5066644;28;20329;-74
2022/11/04 12:21:02;;;;;;;;;;;;;;;10.94;84.19;95453.38;5064911;28;20434;-75
2022/11/04 12:23:34;;;;;;;;;;;;;;;10.91;83.43;95443.38;5062613;28;20411;-74
2022/11/04 12:26:09;;;;;;;;;;;;;;;10.94;85.42;95472.53;5065178;28;19969;-74
2022/11/04 12:28:46;;;;;;;;;;;;;;;11.01;84.67;95468.94;5052989;28;19952;-74
2022/11/04 12:31:15;;;;;;;;;;;;;;;11.14;85.34;95477.22;5060557;28;19948;-74
2022/11/04 12:33:46;;;;;;;;;;;;;;;11.28;86.37;95476.88;5060649;28;19953;-75
2022/11/04 12:36:21;;;;;;;;;;;;;;;11.37;83.34;95449.91;5067495;28;19955;-74
2022/11/04 12:39:06;;;;;;;;;;;;;;;11.47;83.10;95453.72;5067227;28;19960;-74
2022/11/04 12:41:51;;;;;;;;;;;;;;;11.51;77.75;95410.94;5067840;28;20387;-74
2022/11/04 12:44:36;;;;;;;;;;;;;;;11.64;83.11;95454.38;5068617;28;19965;-74
2022/11/04 12:47:21;;;;;;;;;;;;;;;11.80;82.77;95463.22;5043271;28;19969;-74
2022/11/04 12:49:56;;;;;;;;;;;;;;;11.94;79.44;95437.31;5063995;28;19960;-75
2022/11/04 12:52:34;;;;;;;;;;;;;;;12.02;76.98;95409.81;5044100;28;19946;-74
2022/11/04 12:55:19;;;;;;;;;;;;;;;12.10;79.05;95443.50;5065616;28;19955;-74
2022/11/04 12:57:47;;;;;;;;;;;;;;;12.18;74.77;95409.66;5059221;28;19946;-75
2022/11/04 13:00:15;;;;;;;;;;;;;;;12.26;78.11;95432.03;5052133;28;19952;-74
2022/11/04 13:02:41;;;;;;;;;;;;;;;12.28;76.17;95429.94;5068374;28;19943;-72
2022/11/04 13:05:07;;;;;;;;;;;;;;;12.30;79.58;95450.72;5058424;28;20004;-73
2022/11/04 13:07:38;;;;;;;;;;;;;;;12.24;76.32;95430.72;5061146;28;19980;-73
2022/11/04 13:10:06;;;;;;;;;;;;;;;12.06;75.33;95422.19;5066569;28;19963;-73
2022/11/04 13:12:36;;;;;;;;;;;;;;;11.97;79.20;95466.53;5067649;28;19962;-72
2022/11/04 13:15:23;;;;;;;;;;;;;;;11.94;78.07;95455.72;5062489;28;19952;-73
2022/11/04 13:17:51;;;;;;;;;;;;;;;11.85;76.65;95460.63;5073949;28;19946;-74
2022/11/04 13:20:23;;;;;;;;;;;;;;;11.70;76.09;95452.59;5074874;28;19947;-75
2022/11/04 13:22:51;;;;;;;;;;;;;;;11.67;81.02;95497.72;5061537;28;19956;-74
2022/11/04 13:25:17;;;;;;;;;;;;;;;11.60;78.34;95479.56;5059687;28;19959;-74
2022/11/04 13:27:44;;;;;;;;;;;;;;;11.54;78.73;95477.91;5074226;28;19974;-73
2022/11/04 13:30:30;;;;;;;;;;;;;;;11.47;78.32;95466.84;5063721;28;19951;-73
2022/11/04 13:33:22;;;;;;;;;;;;;;;11.42;79.79;95482.50;5062322;28;20315;-73